createdAt,value
2017-06-10T00:02:01.077Z,15.80
2017-06-10T00:04:28.570Z,14.80
2017-06-10T00:06:56.014Z,16.52
2017-06-10T00:09:23.498Z,20.75
2017-06-10T00:11:50.939Z,15.13
2017-06-10T00:14:18.396Z,20.62
2017-06-10T00:16:45.834Z,21.35
2017-06-10T00:19:13.275Z,17.87
2017-06-10T00:21:40.720Z,21.08
2017-06-10T00:24:08.165Z,20.20
2017-06-10T00:26:35.643Z,18.58
2017-06-10T00:29:03.087Z,18.50
2017-06-10T00:31:30.579Z,20.20
2017-06-10T00:33:58.017Z,23.05
2017-06-10T00:36:25.464Z,20.55
2017-06-10T00:38:53.046Z,21.50
2017-06-10T00:41:20.500Z,19.50
2017-06-10T00:43:48.011Z,19.27
2017-06-10T00:46:15.532Z,16.77
2017-06-10T00:48:43.080Z,19.40
2017-06-10T00:51:10.531Z,17.37
2017-06-10T00:53:37.983Z,20.43
2017-06-10T00:56:05.431Z,20.85
2017-06-10T00:58:32.908Z,16.95
2017-06-10T01:01:00.368Z,19.70
2017-06-10T01:03:27.915Z,18.13
2017-06-10T01:05:55.363Z,20.35
2017-06-10T01:08:22.832Z,15.63
2017-06-10T01:10:50.281Z,19.10
2017-06-10T01:13:17.740Z,17.25
2017-06-10T01:15:45.189Z,18.73
2017-06-10T01:18:12.649Z,16.05
2017-06-10T01:20:40.112Z,17.95
2017-06-10T01:23:07.607Z,17.40
2017-06-10T01:25:35.136Z,18.83
2017-06-10T01:28:02.682Z,22.92
2017-06-10T01:30:30.253Z,18.05
2017-06-10T01:32:57.688Z,20.67
2017-06-10T01:35:25.151Z,18.60
2017-06-10T01:37:52.607Z,18.40
2017-06-10T01:40:20.073Z,18.70
2017-06-10T01:42:47.503Z,23.05
2017-06-10T01:45:14.955Z,20.08
2017-06-10T01:47:42.399Z,21.00
2017-06-10T01:50:09.897Z,19.00
2017-06-10T01:52:37.354Z,17.25
2017-06-10T01:55:04.811Z,16.90
2017-06-10T01:57:32.244Z,18.48
2017-06-10T01:59:59.701Z,17.67
2017-06-10T02:02:27.141Z,20.87
2017-06-10T02:04:54.574Z,17.60
2017-06-10T02:07:22.041Z,17.85
2017-06-10T02:09:49.551Z,17.77
2017-06-10T02:12:17.107Z,18.40
2017-06-10T02:14:44.552Z,16.63
2017-06-10T02:17:12.011Z,17.42
2017-06-10T02:19:39.478Z,18.85
2017-06-10T02:22:06.934Z,19.70
2017-06-10T02:24:34.495Z,20.73
2017-06-10T02:27:02.036Z,17.08
2017-06-10T02:29:29.495Z,19.62
2017-06-10T02:31:56.942Z,21.75
2017-06-10T02:34:24.420Z,22.08
2017-06-10T02:36:51.964Z,23.03
2017-06-10T02:39:19.423Z,19.98
2017-06-10T02:41:46.885Z,19.45
2017-06-10T02:44:14.434Z,19.77
2017-06-10T02:46:41.901Z,21.30
2017-06-10T02:49:09.464Z,20.67
2017-06-10T02:51:36.898Z,16.57
2017-06-10T02:54:04.360Z,18.95
2017-06-10T02:56:31.832Z,20.23
2017-06-10T02:58:59.283Z,15.38
2017-06-10T03:01:26.727Z,19.95
2017-06-10T03:03:54.171Z,20.90
2017-06-10T03:06:21.624Z,20.27
2017-06-10T03:08:49.083Z,19.58
2017-06-10T03:11:16.564Z,20.17
2017-06-10T03:13:44.020Z,19.30
2017-06-10T03:16:11.471Z,19.92
2017-06-10T03:18:39.130Z,20.48
2017-06-10T03:21:06.593Z,20.90
2017-06-10T03:23:34.018Z,20.48
2017-06-10T03:26:01.506Z,20.92
2017-06-10T03:28:28.961Z,17.60
2017-06-10T03:30:56.416Z,20.45
2017-06-10T03:33:23.844Z,19.40
2017-06-10T03:35:51.323Z,20.65
2017-06-10T03:38:18.777Z,17.40
2017-06-10T03:40:46.235Z,20.05
2017-06-10T03:43:13.740Z,19.92
2017-06-10T03:45:41.993Z,21.77
2017-06-10T03:48:09.535Z,22.30
2017-06-10T03:50:37.079Z,20.50
2017-06-10T03:53:04.518Z,18.58
2017-06-10T03:55:31.968Z,19.85
2017-06-10T03:57:59.459Z,18.60
2017-06-10T04:00:26.918Z,18.30
2017-06-10T04:02:54.360Z,19.50
2017-06-10T04:05:21.811Z,20.08
2017-06-10T04:07:49.275Z,18.60
2017-06-10T04:10:16.712Z,14.50
2017-06-10T04:12:44.197Z,16.50
2017-06-10T04:15:11.633Z,17.67
2017-06-10T04:17:39.076Z,14.23
2017-06-10T04:20:06.554Z,17.52
2017-06-10T04:22:34.011Z,14.38
2017-06-10T04:25:01.467Z,16.40
2017-06-10T04:27:28.926Z,17.23
2017-06-10T04:29:56.392Z,16.27
2017-06-10T04:32:23.836Z,15.38
2017-06-10T04:34:51.284Z,13.88
2017-06-10T04:37:18.831Z,18.02
2017-06-10T04:39:46.307Z,15.45
2017-06-10T04:42:13.779Z,15.80
2017-06-10T04:44:41.229Z,15.32
2017-06-10T04:47:08.714Z,14.90
2017-06-10T04:49:36.171Z,13.80
2017-06-10T04:52:04.509Z,16.55
2017-06-10T04:54:31.979Z,16.75
2017-06-10T04:56:59.531Z,16.00
2017-06-10T04:59:26.983Z,15.27
2017-06-10T05:01:54.544Z,21.65
2017-06-10T05:04:21.999Z,13.55
2017-06-10T05:06:49.463Z,17.87
2017-06-10T05:09:17.008Z,15.18
2017-06-10T05:11:44.466Z,14.18
2017-06-10T05:14:11.937Z,16.55
2017-06-10T05:16:39.391Z,14.93
2017-06-10T05:19:07.360Z,14.02
2017-06-10T05:21:34.919Z,15.63
2017-06-10T05:24:02.363Z,17.20
2017-06-10T05:26:29.823Z,13.62
2017-06-10T05:28:57.267Z,15.48
2017-06-10T05:31:24.843Z,16.23
2017-06-10T05:33:52.307Z,14.30
2017-06-10T05:36:19.743Z,15.20
2017-06-10T05:38:47.218Z,15.65
2017-06-10T05:41:14.666Z,18.98
2017-06-10T05:43:42.121Z,15.93
2017-06-10T05:46:09.555Z,15.10
2017-06-10T05:48:37.042Z,17.45
2017-06-10T05:51:04.484Z,13.60
2017-06-10T05:53:31.937Z,19.98
2017-06-10T05:55:59.391Z,16.42
2017-06-10T05:58:26.846Z,14.03
2017-06-10T06:00:54.295Z,18.67
2017-06-10T06:03:21.763Z,14.50
2017-06-10T06:05:49.332Z,19.25
2017-06-10T06:08:16.779Z,18.80
2017-06-10T06:10:44.314Z,16.25
2017-06-10T06:13:11.796Z,16.60
2017-06-10T06:15:39.241Z,18.52
2017-06-10T06:18:06.830Z,22.20
2017-06-10T06:20:34.385Z,19.40
2017-06-10T06:23:01.833Z,20.45
2017-06-10T06:25:29.383Z,19.50
2017-06-10T06:27:56.935Z,18.42
2017-06-10T06:30:24.396Z,15.32
2017-06-10T06:32:52.143Z,15.52
2017-06-10T06:35:19.623Z,20.08
2017-06-10T06:37:47.066Z,15.38
2017-06-10T06:40:14.524Z,18.20
2017-06-10T06:42:41.974Z,18.00
2017-06-10T06:45:09.439Z,17.77
2017-06-10T06:47:37.698Z,19.52
2017-06-10T06:50:05.184Z,16.63
2017-06-10T06:52:32.679Z,17.00
2017-06-10T06:55:00.132Z,19.08
2017-06-10T06:57:28.458Z,17.90
2017-06-10T06:59:55.937Z,16.92
2017-06-10T07:02:23.388Z,20.45
2017-06-10T07:04:50.935Z,16.83
2017-06-10T07:07:18.388Z,16.80
2017-06-10T07:09:45.912Z,15.15
2017-06-10T07:12:13.359Z,17.77
2017-06-10T07:14:40.860Z,15.45
2017-06-10T07:17:08.307Z,18.48
2017-06-10T07:19:35.748Z,21.73
2017-06-10T07:22:03.186Z,15.95
2017-06-10T07:24:30.640Z,17.93
2017-06-10T07:26:58.275Z,12.75
2017-06-10T07:29:25.780Z,20.30
2017-06-10T07:31:53.260Z,20.42
2017-06-10T07:34:20.699Z,22.37
2017-06-10T07:36:48.130Z,17.80
2017-06-10T07:39:15.636Z,19.33
2017-06-10T07:41:43.076Z,15.10
2017-06-10T07:44:10.647Z,14.32
2017-06-10T07:46:38.102Z,11.55
2017-06-10T07:49:05.639Z,16.62
2017-06-10T07:51:33.071Z,12.85
2017-06-10T07:54:00.504Z,13.40
2017-06-10T07:56:28.755Z,10.80
2017-06-10T07:58:56.309Z,14.27
2017-06-10T08:01:23.787Z,18.60
2017-06-10T08:03:52.030Z,14.95
2017-06-10T08:06:20.281Z,12.52
2017-06-10T08:08:47.795Z,14.50
2017-06-10T08:11:16.004Z,16.15
2017-06-10T08:13:43.504Z,13.38
2017-06-10T08:16:10.940Z,13.98
2017-06-10T08:18:38.384Z,9.60
2017-06-10T08:21:05.838Z,11.33
2017-06-10T08:23:33.269Z,11.98
2017-06-10T08:26:00.807Z,11.93
2017-06-10T08:28:28.334Z,9.57
2017-06-10T08:30:55.767Z,13.00
2017-06-10T08:33:23.203Z,9.52
2017-06-10T08:35:50.711Z,11.15
2017-06-10T08:38:18.167Z,12.93
2017-06-10T08:40:45.595Z,9.80
2017-06-10T08:43:13.197Z,7.55
2017-06-10T08:45:40.743Z,9.07
2017-06-10T08:48:08.178Z,9.48
2017-06-10T08:50:35.620Z,9.30
2017-06-10T08:53:03.061Z,10.67
2017-06-10T08:55:30.498Z,8.27
2017-06-10T08:57:58.705Z,13.02
2017-06-10T09:00:26.132Z,9.50
2017-06-10T09:02:54.359Z,11.73
2017-06-10T09:05:21.827Z,10.98
2017-06-10T09:07:49.368Z,8.07
2017-06-10T09:10:16.823Z,7.53
2017-06-10T09:12:44.400Z,9.20
2017-06-10T09:15:11.827Z,11.50
2017-06-10T09:17:39.276Z,14.23
2017-06-10T09:20:06.754Z,9.07
2017-06-10T09:22:34.190Z,9.65
2017-06-10T09:25:01.626Z,7.15
2017-06-10T09:27:29.203Z,6.00
2017-06-10T09:29:56.751Z,6.18
2017-06-10T09:32:24.171Z,5.95
2017-06-10T09:34:52.403Z,6.57
2017-06-10T09:37:19.864Z,7.47
2017-06-10T09:39:47.404Z,6.00
2017-06-10T09:42:14.916Z,8.35
2017-06-10T09:44:42.412Z,5.30
2017-06-10T09:47:09.903Z,6.75
2017-06-10T09:49:37.356Z,7.60
2017-06-10T09:52:04.804Z,9.93
2017-06-10T09:54:32.240Z,6.87
2017-06-10T09:56:59.708Z,4.83
2017-06-10T09:59:27.155Z,7.00
2017-06-10T10:01:54.643Z,5.27
2017-06-10T10:04:22.086Z,6.32
2017-06-10T10:06:49.510Z,6.95
2017-06-10T10:09:17.012Z,5.55
2017-06-10T10:11:44.449Z,8.10
2017-06-10T10:14:11.924Z,7.30
2017-06-10T10:16:39.345Z,7.20
2017-06-10T10:19:07.012Z,6.90
2017-06-10T10:21:34.443Z,5.53
2017-06-10T10:24:01.883Z,7.50
2017-06-10T10:26:29.421Z,8.48
2017-06-10T10:28:57.071Z,7.40
2017-06-10T10:31:24.504Z,7.72
2017-06-10T10:33:51.971Z,6.03
2017-06-10T10:36:19.548Z,5.45
2017-06-10T10:38:46.998Z,6.65
2017-06-10T10:41:14.629Z,6.60
2017-06-10T10:43:42.103Z,5.47
2017-06-10T10:46:09.558Z,7.37
2017-06-10T10:48:36.999Z,6.22
2017-06-10T10:51:04.476Z,6.80
2017-06-10T10:53:31.927Z,5.30
2017-06-10T10:55:59.376Z,5.00
2017-06-10T10:58:26.851Z,5.65
2017-06-10T11:00:54.315Z,5.82
2017-06-10T11:03:21.747Z,6.57
2017-06-10T11:05:49.223Z,6.72
2017-06-10T11:08:16.671Z,6.37
2017-06-10T11:10:44.135Z,8.90
2017-06-10T11:13:11.589Z,9.48
2017-06-10T11:15:39.112Z,11.00
2017-06-10T11:18:06.543Z,8.13
2017-06-10T11:20:33.995Z,7.85
2017-06-10T11:23:02.228Z,9.27
2017-06-10T11:25:29.659Z,5.97
2017-06-10T11:27:57.134Z,8.02
2017-06-10T11:30:24.623Z,7.30
2017-06-10T11:32:52.068Z,9.02
2017-06-10T11:35:19.519Z,5.72
2017-06-10T11:37:47.143Z,6.90
2017-06-10T11:40:14.584Z,6.85
2017-06-10T11:42:42.015Z,6.60
2017-06-10T11:45:10.247Z,5.57
2017-06-10T11:47:37.709Z,7.07
2017-06-10T11:50:05.136Z,7.10
2017-06-10T11:52:32.578Z,7.07
2017-06-10T11:55:00.071Z,8.63
2017-06-10T11:57:27.527Z,6.75
2017-06-10T11:59:54.978Z,5.90
2017-06-10T12:02:22.443Z,7.32
2017-06-10T12:04:49.899Z,11.20
2017-06-10T12:07:17.367Z,6.53
2017-06-10T12:09:44.814Z,6.93
2017-06-10T12:12:12.385Z,9.05
2017-06-10T12:14:39.836Z,6.95
2017-06-10T12:17:07.387Z,6.37
2017-06-10T12:19:34.824Z,8.68
2017-06-10T12:22:02.267Z,7.57
2017-06-10T12:24:29.763Z,8.40
2017-06-10T12:26:57.226Z,6.03
2017-06-10T12:29:24.777Z,6.80
2017-06-10T12:31:52.227Z,8.02
2017-06-10T12:34:19.687Z,7.18
2017-06-10T12:36:47.136Z,9.52
2017-06-10T12:39:14.612Z,8.18
2017-06-10T12:41:42.042Z,7.03
2017-06-10T12:44:09.487Z,6.55
2017-06-10T12:46:37.059Z,6.97
2017-06-10T12:49:04.523Z,5.03
2017-06-10T12:51:31.970Z,5.95
2017-06-10T12:53:59.456Z,6.20
2017-06-10T12:56:26.901Z,6.37
2017-06-10T12:58:54.372Z,8.40
2017-06-10T13:01:22.086Z,8.10
2017-06-10T13:03:49.518Z,9.43
2017-06-10T13:06:17.015Z,7.07
2017-06-10T13:08:44.451Z,9.38
2017-06-10T13:11:11.965Z,6.70
2017-06-10T13:13:39.419Z,7.32
2017-06-10T13:16:06.854Z,9.27
2017-06-10T13:18:34.291Z,8.40
2017-06-10T13:21:01.845Z,8.98
2017-06-10T13:23:29.419Z,5.70
2017-06-10T13:25:56.938Z,6.93
2017-06-10T13:28:24.385Z,5.43
2017-06-10T13:30:51.807Z,6.37
2017-06-10T13:33:19.339Z,6.55
2017-06-10T13:35:46.823Z,6.73
2017-06-10T13:38:14.353Z,7.43
2017-06-10T13:40:41.783Z,5.33
2017-06-10T13:43:09.232Z,4.80
2017-06-10T13:45:36.755Z,5.30
2017-06-10T13:48:04.287Z,3.60
2017-06-10T13:50:31.928Z,6.03
2017-06-10T13:52:59.346Z,6.65
2017-06-10T13:55:27.544Z,6.72
2017-06-10T13:57:55.031Z,5.45
2017-06-10T14:00:22.491Z,5.43
2017-06-10T14:02:49.935Z,5.90
2017-06-10T14:05:17.428Z,4.32
2017-06-10T14:07:44.868Z,5.12
2017-06-10T14:10:12.414Z,6.68
2017-06-10T14:12:39.884Z,6.43
2017-06-10T14:15:07.340Z,6.87
2017-06-10T14:17:34.900Z,5.62
2017-06-10T14:20:02.357Z,5.57
2017-06-10T14:22:29.841Z,4.53
2017-06-10T14:24:58.173Z,6.07
2017-06-10T14:27:25.602Z,5.80
2017-06-10T14:29:53.193Z,7.47
2017-06-10T14:32:20.727Z,5.60
2017-06-10T14:34:48.170Z,4.95
2017-06-10T14:37:15.619Z,6.05
2017-06-10T14:39:43.609Z,4.78
2017-06-10T14:42:11.168Z,4.85
2017-06-10T14:44:38.592Z,6.30
2017-06-10T14:47:06.107Z,3.10
2017-06-10T14:49:33.547Z,4.82
2017-06-10T14:52:00.991Z,3.90
2017-06-10T14:54:28.481Z,5.40
2017-06-10T14:56:55.924Z,5.90
2017-06-10T14:59:23.463Z,4.37
2017-06-10T15:01:50.879Z,5.00
2017-06-10T15:04:19.124Z,5.75
2017-06-10T15:06:46.583Z,5.90
2017-06-10T15:09:14.059Z,6.43
2017-06-10T15:11:42.268Z,4.32
2017-06-10T15:14:09.754Z,6.78
2017-06-10T15:16:37.225Z,6.20
2017-06-10T15:19:04.646Z,6.55
2017-06-10T15:21:32.130Z,3.22
2017-06-10T15:23:59.580Z,5.40
2017-06-10T15:26:27.035Z,3.95
2017-06-10T15:28:54.562Z,4.43
2017-06-10T15:31:22.012Z,4.90
2017-06-10T15:33:49.454Z,6.97
2017-06-10T15:36:17.651Z,3.90
2017-06-10T15:38:45.091Z,5.20
2017-06-10T15:41:12.531Z,7.20
2017-06-10T15:43:40.895Z,4.95
2017-06-10T15:46:08.430Z,4.70
2017-06-10T15:48:35.967Z,4.18
2017-06-10T15:51:03.395Z,4.47
2017-06-10T15:53:30.909Z,4.93
2017-06-10T15:55:58.351Z,5.37
2017-06-10T15:58:25.822Z,6.82
2017-06-10T16:00:53.281Z,5.50
2017-06-10T16:03:20.827Z,5.57
2017-06-10T16:05:48.294Z,5.05
2017-06-10T16:08:15.720Z,5.18
2017-06-10T16:10:43.155Z,4.53
2017-06-10T16:13:10.733Z,5.20
2017-06-10T16:15:38.155Z,7.13
2017-06-10T16:18:06.383Z,6.40
2017-06-10T16:20:33.826Z,4.00
2017-06-10T16:23:01.376Z,7.62
2017-06-10T16:25:28.796Z,5.87
2017-06-10T16:27:57.023Z,9.50
2017-06-10T16:30:24.458Z,8.65
2017-06-10T16:32:52.284Z,7.87
2017-06-10T16:35:19.708Z,7.43
2017-06-10T16:37:47.292Z,8.00
2017-06-10T16:40:14.815Z,9.40
2017-06-10T16:42:42.294Z,9.50
2017-06-10T16:45:09.814Z,7.32
2017-06-10T16:47:37.264Z,8.30
2017-06-10T16:50:04.703Z,9.07
2017-06-10T16:52:32.142Z,8.55
2017-06-10T16:55:00.374Z,6.60
2017-06-10T16:57:27.845Z,6.93
2017-06-10T16:59:55.276Z,7.40
2017-06-10T17:02:22.725Z,7.40
2017-06-10T17:04:50.155Z,8.03
2017-06-10T17:07:17.635Z,6.90
2017-06-10T17:09:45.063Z,9.05
2017-06-10T17:12:12.521Z,10.18
2017-06-10T17:14:40.078Z,8.27
2017-06-10T17:17:07.521Z,9.90
2017-06-10T17:19:35.718Z,6.62
2017-06-10T17:22:03.327Z,8.43
2017-06-10T17:24:30.894Z,8.27
2017-06-10T17:26:58.330Z,8.57
2017-06-10T17:29:26.025Z,9.13
2017-06-10T17:31:53.836Z,6.90
2017-06-10T17:34:21.603Z,9.07
2017-06-10T17:36:49.566Z,9.98
2017-06-10T17:39:17.535Z,8.70
2017-06-10T17:41:46.276Z,11.45
2017-06-10T17:44:13.983Z,15.57
2017-06-10T17:46:41.628Z,15.40
2017-06-10T17:49:09.612Z,13.60
2017-06-10T17:51:37.477Z,14.00
2017-06-10T17:54:05.447Z,8.95
2017-06-10T17:56:33.322Z,9.23
2017-06-10T17:59:02.147Z,10.52
2017-06-10T18:01:30.069Z,9.23
2017-06-10T18:03:57.933Z,11.50
2017-06-10T18:06:25.871Z,9.63
2017-06-10T18:08:53.666Z,9.02
2017-06-10T18:11:21.341Z,10.52
2017-06-10T18:13:49.191Z,10.27
2017-06-10T18:16:17.141Z,9.40
2017-06-10T18:18:45.026Z,11.88
2017-06-10T18:21:12.525Z,11.10
2017-06-10T18:23:45.707Z,11.38
2017-06-10T18:26:13.128Z,11.20
2017-06-10T18:28:40.563Z,10.75
2017-06-10T18:31:08.007Z,10.18
2017-06-10T18:33:36.796Z,11.85
2017-06-10T18:36:05.045Z,11.47
2017-06-10T18:38:32.492Z,11.00
2017-06-10T18:40:59.945Z,11.27
2017-06-10T18:43:27.385Z,10.32
2017-06-10T18:45:54.851Z,9.13
2017-06-10T18:48:22.303Z,10.43
2017-06-10T18:50:49.751Z,10.02
2017-06-10T18:53:17.230Z,11.30
2017-06-10T18:55:44.676Z,10.23
2017-06-10T18:58:12.147Z,10.68
2017-06-10T19:00:39.707Z,11.27
2017-06-10T19:03:07.143Z,10.20
2017-06-10T19:05:34.702Z,11.38
2017-06-10T19:08:02.242Z,11.93
2017-06-10T19:10:29.675Z,11.10
2017-06-10T19:12:57.120Z,10.32
2017-06-10T19:15:24.543Z,11.57
2017-06-10T19:17:52.131Z,10.88
2017-06-10T19:20:20.374Z,12.45
2017-06-10T19:22:47.921Z,11.32
2017-06-10T19:25:15.383Z,10.70
2017-06-10T19:27:42.851Z,11.12
2017-06-10T19:30:10.401Z,10.30
2017-06-10T19:32:37.872Z,10.88
2017-06-10T19:35:05.428Z,11.00
2017-06-10T19:37:32.878Z,11.25
2017-06-10T19:40:00.316Z,10.47
2017-06-10T19:42:27.755Z,11.80
2017-06-10T19:44:55.233Z,11.93
2017-06-10T19:47:22.689Z,9.65
2017-06-10T19:49:50.156Z,11.73
2017-06-10T19:52:17.595Z,10.63
2017-06-10T19:54:45.057Z,11.18
2017-06-10T19:57:12.513Z,10.90
2017-06-10T19:59:40.151Z,12.80
2017-06-10T20:02:07.606Z,11.90
2017-06-10T20:04:35.093Z,13.33
2017-06-10T20:07:02.535Z,12.80
2017-06-10T20:09:30.023Z,12.23
2017-06-10T20:11:57.528Z,12.07
2017-06-10T20:14:25.010Z,13.77
2017-06-10T20:16:52.457Z,11.70
2017-06-10T20:19:19.912Z,12.98
2017-06-10T20:21:47.389Z,13.85
2017-06-10T20:24:14.946Z,12.75
2017-06-10T20:26:42.494Z,12.68
2017-06-10T20:29:09.943Z,11.67
2017-06-10T20:31:37.389Z,11.30
2017-06-10T20:34:04.848Z,11.98
2017-06-10T20:36:32.291Z,12.02
2017-06-10T20:38:59.789Z,12.70
2017-06-10T20:41:27.230Z,13.23
2017-06-10T20:43:54.696Z,13.55
2017-06-10T20:46:22.199Z,16.13
2017-06-10T20:48:49.923Z,15.68
2017-06-10T20:51:17.376Z,15.73
2017-06-10T20:53:44.815Z,18.10
2017-06-10T20:56:12.310Z,19.70
2017-06-10T20:58:39.760Z,14.27
2017-06-10T21:01:07.204Z,12.70
2017-06-10T21:03:34.661Z,12.90
2017-06-10T21:06:02.100Z,17.02
2017-06-10T21:08:29.950Z,15.93
2017-06-10T21:10:57.427Z,15.63
2017-06-10T21:13:24.891Z,15.30
2017-06-10T21:15:52.347Z,14.23
2017-06-10T21:18:19.819Z,13.10
2017-06-10T21:20:47.284Z,11.65
2017-06-10T21:23:14.724Z,16.20
2017-06-10T21:25:42.267Z,13.75
2017-06-10T21:28:09.732Z,15.23
2017-06-10T21:30:37.190Z,20.50
2017-06-10T21:33:04.643Z,21.30
2017-06-10T21:35:32.114Z,21.10
2017-06-10T21:37:59.650Z,21.12
2017-06-10T21:40:27.188Z,15.95
2017-06-10T21:42:54.681Z,17.48
2017-06-10T21:45:22.225Z,15.18
2017-06-10T21:47:49.678Z,12.18
2017-06-10T21:50:18.241Z,15.17
2017-06-10T21:52:45.742Z,15.87
2017-06-10T21:55:13.198Z,13.65
2017-06-10T21:57:40.663Z,13.27
2017-06-10T22:00:08.986Z,11.82
2017-06-10T22:02:36.409Z,12.33
2017-06-10T22:05:04.655Z,12.82
2017-06-10T22:07:32.112Z,14.97
2017-06-10T22:09:59.552Z,11.70
2017-06-10T22:12:26.990Z,13.73
2017-06-10T22:14:54.475Z,13.77
2017-06-10T22:17:22.021Z,12.68
2017-06-10T22:19:49.557Z,16.07
2017-06-10T22:22:17.039Z,15.70
2017-06-10T22:24:44.504Z,16.10
2017-06-10T22:27:12.049Z,15.53
2017-06-10T22:29:39.617Z,17.05
2017-06-10T22:32:07.108Z,17.08
2017-06-10T22:34:35.327Z,15.50
2017-06-10T22:37:02.878Z,15.90
2017-06-10T22:39:30.371Z,16.73
2017-06-10T22:41:57.813Z,16.75
2017-06-10T22:44:25.285Z,16.65
2017-06-10T22:46:52.718Z,17.40
2017-06-10T22:49:20.218Z,17.40
2017-06-10T22:51:48.474Z,20.05
2017-06-10T22:54:15.907Z,18.60
2017-06-10T22:56:43.376Z,21.75
2017-06-10T22:59:10.833Z,18.10
2017-06-10T23:01:38.282Z,18.75
2017-06-10T23:04:05.758Z,19.65
2017-06-10T23:06:33.311Z,21.00
2017-06-10T23:09:00.751Z,19.42
2017-06-10T23:11:28.205Z,20.50
2017-06-10T23:13:55.669Z,22.30
2017-06-10T23:16:23.135Z,21.48
2017-06-10T23:18:50.660Z,22.27
2017-06-10T23:21:18.235Z,26.58
2017-06-10T23:23:45.708Z,39.70
2017-06-10T23:26:13.277Z,37.90
2017-06-10T23:28:40.810Z,41.45
2017-06-10T23:31:08.283Z,53.05
2017-06-10T23:33:35.843Z,39.17
2017-06-10T23:36:03.384Z,33.08
2017-06-10T23:38:30.826Z,35.17
2017-06-10T23:40:58.264Z,44.53
2017-06-10T23:43:25.841Z,28.48
2017-06-10T23:45:53.286Z,23.80
2017-06-10T23:48:20.730Z,21.40
2017-06-10T23:50:48.223Z,21.73
2017-06-10T23:53:15.689Z,21.27
2017-06-10T23:55:43.143Z,20.85
2017-06-10T23:58:10.776Z,21.70
